Terminal Aerodrome Forecast
Issued by NWS

Home | Current Version | Previous Version | Text Only | Print | Product List | Glossary On
Versions: 1 2 3 4 5 6 7 8 9 10 11 12 13 14 15
000
FTUS45 KFGZ 041737
TAFPRC
TAF
KPRC 041737Z 0418/0518 VRB04KT P6SM SCT080 BKN120
     FM041900 23008KT P6SM SCT070 BKN110
      TEMPO 0419/0422 VRB15G25KT TSRA BKN070CB
     FM050300 20005KT P6SM FEW060 SCT110=

USA.gov is the U.S. government's official web portal to all federal, state and local government web resources and services.